Time;durP1;ratioP1;P1;durP2;ratioP2;P2;SDS_P1;SDS_P2;PMS_P1;PMS_P2;Temp;Humidity;BMP_temperature;BMP_pressure;BME280_temperature;BME280_humidity;BME280_pressure;Samples;Min_cycle;Max_cycle;Signal;HPM_P1;HPM_P2
2022/03/08 00:00:43;;;;;;;3.92;1.50;;;9.60;71.30;;;;;;20667419;28;20070;-64
2022/03/08 00:10:45;;;;;;;2.20;1.63;;;9.50;71.60;;;;;;20682871;28;20050;-64
2022/03/08 00:20:47;;;;;;;2.20;1.40;;;9.50;71.50;;;;;;20666136;28;20058;-66
2022/03/08 00:30:49;;;;;;;2.13;1.50;;;9.50;71.90;;;;;;20679191;28;20422;-65
2022/03/08 00:40:52;;;;;;;2.70;1.70;;;9.50;71.90;;;;;;20679818;28;20050;-66
2022/03/08 00:50:53;;;;;;;2.47;1.50;;;9.30;72.30;;;;;;20680954;28;20046;-66
2022/03/08 01:00:55;;;;;;;3.28;1.77;;;9.30;72.50;;;;;;20694349;28;20062;-65
2022/03/08 01:10:57;;;;;;;4.15;1.73;;;9.20;72.90;;;;;;20681058;28;20406;-65
2022/03/08 01:20:59;;;;;;;3.03;1.88;;;9.20;73.00;;;;;;20677842;28;20061;-63
2022/03/08 01:31:02;;;;;;;2.83;1.88;;;9.10;73.40;;;;;;20676762;28;20050;-63
2022/03/08 01:41:03;;;;;;;3.80;2.25;;;9.00;73.70;;;;;;20690667;28;20124;-63
2022/03/08 01:51:06;;;;;;;3.55;2.40;;;8.90;74.30;;;;;;20675965;28;20046;-65
2022/03/08 02:01:08;;;;;;;2.33;1.88;;;8.90;74.00;;;;;;20674158;28;20081;-64
2022/03/08 02:11:11;;;;;;;3.97;2.25;;;8.90;74.20;;;;;;20674729;28;20051;-65
2022/03/08 02:21:14;;;;;;;4.68;2.88;;;8.90;74.00;;;;;;20674777;28;20128;-63
2022/03/08 02:31:17;;;;;;;4.78;3.20;;;9.00;74.00;;;;;;20673532;28;20046;-64
2022/03/08 02:41:19;;;;;;;5.05;3.10;;;8.80;74.30;;;;;;20672962;28;20133;-64
2022/03/08 02:51:21;;;;;;;6.18;3.38;;;8.90;74.30;;;;;;20678126;28;20436;-64
2022/03/08 03:01:23;;;;;;;5.38;3.58;;;8.90;74.50;;;;;;20669559;28;20065;-63
2022/03/08 03:11:26;;;;;;;7.13;4.50;;;8.90;74.40;;;;;;20667715;28;20058;-65
2022/03/08 03:21:32;;;;;;;5.80;3.78;;;9.00;74.20;;;;;;20668432;28;20145;-65
2022/03/08 03:31:38;;;;;;;6.60;3.95;;;9.00;74.30;;;;;;20682597;28;20050;-65
2022/03/08 03:41:52;;;;;;;6.70;4.63;;;8.90;74.50;;;;;;20681166;28;20061;-65
2022/03/08 03:51:57;;;;;;;7.68;4.55;;;8.90;74.60;;;;;;20669006;28;20437;-65
2022/03/08 04:02:02;;;;;;;8.98;5.30;;;8.80;74.50;;;;;;20673994;28;20059;-65
2022/03/08 04:12:08;;;;;;;6.47;4.13;;;9.00;74.30;;;;;;20683792;28;20054;-64
2022/03/08 04:22:29;;;;;;;6.75;3.22;;;8.80;73.90;;;;;;20683865;28;20422;-63
2022/03/08 04:32:50;;;;;;;8.45;3.67;;;9.00;72.60;;;;;;20680922;28;20347;-64
2022/03/08 04:43:11;;;;;;;6.07;3.25;;;9.20;71.20;;;;;;20681181;28;20150;-64
2022/03/08 04:53:21;;;;;;;8.60;3.15;;;9.00;69.90;;;;;;20679730;28;20046;-63
2022/03/08 05:03:28;;;;;;;5.85;3.10;;;9.10;69.40;;;;;;20679219;28;20058;-64
2022/03/08 05:13:30;;;;;;;4.85;2.60;;;9.20;68.50;;;;;;20678329;28;20046;-65
2022/03/08 05:23:34;;;;;;;7.18;3.08;;;9.20;67.80;;;;;;20679644;28;20054;-63
2022/03/08 05:33:37;;;;;;;5.50;2.67;;;9.20;67.30;;;;;;20679321;28;20046;-64
2022/03/08 05:43:41;;;;;;;4.75;2.58;;;9.20;66.60;;;;;;20676529;28;20132;-63
2022/03/08 05:53:44;;;;;;;3.25;1.80;;;9.20;65.80;;;;;;20675258;28;20137;-63
2022/03/08 06:03:46;;;;;;;3.80;1.90;;;9.20;64.60;;;;;;20674515;28;20050;-64
2022/03/08 06:13:50;;;;;;;2.88;1.67;;;9.10;63.90;;;;;;20673308;28;20119;-63
2022/03/08 06:23:52;;;;;;;3.25;1.83;;;9.10;63.90;;;;;;20672175;28;20062;-62
2022/03/08 06:33:54;;;;;;;4.18;1.67;;;8.90;64.70;;;;;;20671645;28;20051;-63
2022/03/08 06:43:56;;;;;;;5.55;2.13;;;8.80;65.10;;;;;;20669148;28;20082;-62
2022/03/08 06:53:59;;;;;;;3.22;1.48;;;8.70;65.20;;;;;;20670085;28;20054;-62
2022/03/08 07:04:01;;;;;;;4.30;1.92;;;8.70;65.60;;;;;;20668077;28;20205;-61
2022/03/08 07:14:04;;;;;;;6.65;2.08;;;8.70;65.20;;;;;;20668914;28;20046;-61
2022/03/08 07:24:07;;;;;;;3.42;1.88;;;8.70;65.00;;;;;;20668247;28;20060;-66
2022/03/08 07:34:09;;;;;;;7.25;2.45;;;8.80;64.90;;;;;;20667204;28;20133;-64
2022/03/08 07:44:11;;;;;;;7.10;2.38;;;8.80;64.80;;;;;;20668551;28;20050;-66
2022/03/08 07:54:13;;;;;;;4.28;2.15;;;9.00;64.90;;;;;;20667581;28;20038;-65
2022/03/08 08:04:16;;;;;;;6.95;2.88;;;9.20;64.40;;;;;;20666794;28;20053;-63
2022/03/08 08:14:17;;;;;;;6.35;2.33;;;9.30;63.90;;;;;;20666526;28;20048;-64
2022/03/08 08:24:19;;;;;;;3.78;1.85;;;9.30;63.70;;;;;;20665487;28;20124;-62
2022/03/08 08:34:21;;;;;;;3.15;1.77;;;9.20;64.50;;;;;;20666668;28;20042;-63
2022/03/08 08:44:26;;;;;;;3.03;1.08;;;9.40;64.10;;;;;;20666140;28;20133;-62
2022/03/08 08:54:28;;;;;;;2.72;1.08;;;9.50;63.80;;;;;;20680148;28;20133;-66
2022/03/08 09:04:30;;;;;;;2.70;0.60;;;9.50;63.60;;;;;;20679388;28;20157;-62
2022/03/08 09:14:33;;;;;;;2.22;0.75;;;9.70;63.30;;;;;;20679089;28;20043;-63
2022/03/08 09:24:37;;;;;;;3.15;0.80;;;10.10;62.40;;;;;;20677319;28;20081;-64
2022/03/08 09:34:39;;;;;;;2.03;0.77;;;10.70;61.40;;;;;;20676394;28;20054;-62
2022/03/08 09:44:43;;;;;;;1.42;0.93;;;10.90;60.80;;;;;;20675719;28;20050;-63
2022/03/08 09:54:46;;;;;;;1.50;0.60;;;10.60;61.20;;;;;;20673638;28;20406;-68
2022/03/08 10:05:04;;;;;;;2.13;1.00;;;10.70;61.00;;;;;;20671466;28;20058;-63
2022/03/08 10:15:19;;;;;;;3.03;0.88;;;10.90;60.80;;;;;;20666826;28;20077;-61
2022/03/08 10:25:25;;;;;;;1.35;0.50;;;11.20;60.60;;;;;;20669411;28;20055;-69
2022/03/08 10:35:31;;;;;;;1.88;0.60;;;12.00;59.00;;;;;;20644974;28;20104;-66
2022/03/08 10:45:46;;;;;;;1.40;0.60;;;12.40;58.20;;;;;;20657527;28;20410;-67
2022/03/08 10:55:50;;;;;;;2.03;0.85;;;12.90;57.10;;;;;;20685527;28;20057;-64
2022/03/08 11:05:56;;;;;;;6.90;2.28;;;12.90;57.30;;;;;;20670435;28;20050;-57
2022/03/08 11:15:59;;;;;;;6.60;0.98;;;12.90;57.30;;;;;;20669153;28;20173;-67
2022/03/08 11:26:01;;;;;;;1.92;0.85;;;13.00;56.60;;;;;;20667710;28;20077;-61
2022/03/08 11:36:15;;;;;;;5.25;0.80;;;12.80;57.60;;;;;;20668439;28;20109;-62
2022/03/08 11:46:21;;;;;;;1.20;0.50;;;13.20;56.80;;;;;;20664128;28;20108;-65
2022/03/08 11:56:23;;;;;;;3.40;0.55;;;13.80;55.20;;;;;;20666155;28;20534;-61
2022/03/08 12:06:35;;;;;;;0.93;0.50;;;13.50;55.30;;;;;;20665862;28;20065;-61
2022/03/08 12:16:40;;;;;;;1.50;0.60;;;13.70;55.20;;;;;;20665241;28;20054;-62
2022/03/08 12:26:48;;;;;;;2.63;0.60;;;13.70;55.00;;;;;;20676822;28;20549;-65
2022/03/08 12:37:16;;;;;;;1.20;0.70;;;14.80;51.80;;;;;;20682366;28;20113;-68
2022/03/08 12:47:18;;;;;;;3.33;0.52;;;14.70;51.70;;;;;;20680387;28;20089;-63
2022/03/08 12:57:22;;;;;;;14.23;1.30;;;15.70;50.70;;;;;;20677513;28;20046;-58
2022/03/08 13:07:23;;;;;;;6.13;0.70;;;16.20;49.60;;;;;;20678038;28;20058;-57
2022/03/08 13:17:32;;;;;;;3.78;0.63;;;15.90;50.10;;;;;;20677766;28;20113;-60
2022/03/08 13:28:11;;;;;;;3.03;0.70;;;15.20;50.60;;;;;;20678677;28;20093;-59
2022/03/08 13:38:16;;;;;;;2.03;0.80;;;15.60;49.20;;;;;;20585407;28;20050;-57
2022/03/08 13:48:30;;;;;;;3.15;1.02;;;15.50;49.30;;;;;;20585937;28;20055;-57
2022/03/08 13:58:41;;;;;;;2.38;0.80;;;15.40;49.30;;;;;;20585187;28;20054;-58
2022/03/08 14:08:50;;;;;;;6.72;0.70;;;15.30;49.30;;;;;;20618817;28;20458;-60
2022/03/08 14:18:56;;;;;;;4.03;1.35;;;15.70;48.50;;;;;;20672430;28;20054;-60
2022/03/08 14:29:01;;;;;;;1.90;0.70;;;15.80;48.50;;;;;;20671512;28;20054;-62
2022/03/08 14:39:19;;;;;;;2.00;0.60;;;16.00;48.20;;;;;;20670761;28;20137;-61
2022/03/08 14:49:21;;;;;;;1.20;0.63;;;15.60;48.50;;;;;;20670771;28;20054;-61
2022/03/08 14:59:22;;;;;;;2.88;0.85;;;15.50;49.10;;;;;;20669443;28;20418;-61
2022/03/08 15:09:24;;;;;;;1.98;0.68;;;15.50;48.90;;;;;;20668983;28;20096;-56
2022/03/08 15:19:26;;;;;;;3.47;0.75;;;15.70;48.00;;;;;;20669392;28;20414;-58
2022/03/08 15:29:29;;;;;;;5.60;0.93;;;15.40;48.30;;;;;;20668392;28;20062;-59
2022/03/08 15:39:31;;;;;;;2.35;0.63;;;15.50;47.50;;;;;;20666847;28;20105;-60
2022/03/08 15:49:33;;;;;;;2.05;0.90;;;15.70;47.40;;;;;;20667460;28;20046;-57
2022/03/08 15:59:35;;;;;;;1.27;0.82;;;15.70;47.40;;;;;;20667165;28;20383;-58
2022/03/08 16:09:36;;;;;;;2.22;1.17;;;15.80;47.20;;;;;;20665820;28;20140;-58
2022/03/08 16:19:38;;;;;;;1.70;0.80;;;15.30;48.00;;;;;;20666700;28;20133;-62
2022/03/08 16:29:40;;;;;;;1.45;0.80;;;15.40;48.10;;;;;;20665265;28;20478;-60
2022/03/08 16:39:42;;;;;;;1.67;0.65;;;15.20;48.50;;;;;;20628011;28;20054;-61
2022/03/08 16:49:44;;;;;;;0.77;0.45;;;14.80;48.90;;;;;;20659233;28;20055;-61
2022/03/08 16:59:46;;;;;;;1.95;0.63;;;14.60;49.50;;;;;;20660632;28;20053;-62
2022/03/08 17:09:48;;;;;;;2.08;0.85;;;14.60;49.50;;;;;;20661742;28;20121;-64
2022/03/08 17:19:50;;;;;;;3.10;0.70;;;15.10;49.20;;;;;;20633255;28;20101;-68
2022/03/08 17:29:51;;;;;;;1.98;0.70;;;15.10;49.00;;;;;;20641130;28;20061;-59
2022/03/08 17:39:54;;;;;;;1.08;0.70;;;15.20;49.80;;;;;;20670755;28;20188;-65
2022/03/08 17:49:55;;;;;;;2.97;0.75;;;15.30;48.90;;;;;;20670065;28;20081;-66
2022/03/08 17:59:57;;;;;;;4.15;0.95;;;15.10;49.50;;;;;;20671603;28;20042;-61
2022/03/08 18:09:59;;;;;;;3.42;1.00;;;15.20;49.60;;;;;;20668395;28;20483;-66
2022/03/08 18:20:03;;;;;;;1.20;0.98;;;15.10;50.30;;;;;;20663521;28;20050;-61
2022/03/08 18:30:05;;;;;;;3.83;1.00;;;14.30;51.50;;;;;;20668810;28;20068;-64
2022/03/08 18:40:07;;;;;;;3.70;1.00;;;13.90;52.20;;;;;;20670855;28;20057;-60
2022/03/08 18:50:14;;;;;;;3.88;1.13;;;13.40;53.00;;;;;;20670482;28;20060;-65
2022/03/08 19:00:16;;;;;;;6.18;1.77;;;13.10;53.70;;;;;;20670638;28;20455;-62
2022/03/08 19:10:18;;;;;;;2.55;1.00;;;12.90;54.30;;;;;;20670082;28;20053;-65
2022/03/08 19:20:20;;;;;;;2.38;1.20;;;12.70;54.80;;;;;;20670647;28;20058;-61
2022/03/08 19:30:21;;;;;;;6.43;1.27;;;12.50;55.70;;;;;;20669095;28;20054;-61
2022/03/08 19:40:22;;;;;;;4.07;1.10;;;12.40;56.20;;;;;;20668577;28;20494;-59
2022/03/08 19:50:24;;;;;;;3.78;1.48;;;12.30;56.50;;;;;;20667613;28;20054;-65
2022/03/08 20:00:26;;;;;;;4.68;1.13;;;12.20;57.10;;;;;;20667211;28;20112;-67
2022/03/08 20:10:28;;;;;;;3.60;1.35;;;12.00;57.40;;;;;;20667739;28;20058;-66
2022/03/08 20:20:30;;;;;;;2.45;1.45;;;12.00;57.60;;;;;;20666560;28;20089;-65
2022/03/08 20:30:32;;;;;;;2.72;1.52;;;11.80;57.90;;;;;;20667176;28;20101;-67
2022/03/08 20:40:35;;;;;;;7.93;2.70;;;11.80;58.10;;;;;;20664326;28;20054;-67
2022/03/08 20:50:38;;;;;;;9.38;2.60;;;11.70;58.50;;;;;;20681011;28;20053;-67
2022/03/08 21:00:39;;;;;;;6.25;1.63;;;11.50;59.30;;;;;;20696439;28;20089;-67
2022/03/08 21:10:41;;;;;;;5.13;1.67;;;11.40;59.60;;;;;;20681109;28;20050;-66
2022/03/08 21:20:43;;;;;;;6.35;2.10;;;11.30;59.90;;;;;;20679397;28;20050;-66
2022/03/08 21:30:45;;;;;;;8.60;2.35;;;11.30;59.70;;;;;;20679379;28;20050;-63
2022/03/08 21:40:47;;;;;;;7.30;1.17;;;11.20;59.80;;;;;;20678428;28;20054;-61
2022/03/08 21:50:49;;;;;;;6.65;1.55;;;11.10;59.70;;;;;;20677908;28;20137;-60
2022/03/08 22:00:51;;;;;;;4.88;2.20;;;11.00;59.70;;;;;;20676534;28;20059;-61
2022/03/08 22:10:52;;;;;;;4.10;1.50;;;11.00;59.70;;;;;;20676960;28;20050;-59
2022/03/08 22:20:55;;;;;;;4.85;1.88;;;10.90;59.90;;;;;;20676854;28;20061;-68
2022/03/08 22:30:56;;;;;;;6.50;2.08;;;10.80;60.20;;;;;;20675052;28;20051;-66
2022/03/08 22:41:00;;;;;;;6.38;1.80;;;10.80;60.50;;;;;;20673036;28;20050;-64
2022/03/08 23:01:24;;;;;;;2.47;1.02;;;10.70;60.60;;;;;;20673564;28;20050;-63
2022/03/08 23:11:25;;;;;;;3.40;1.33;;;10.60;60.40;;;;;;20672521;28;20054;-62
2022/03/08 23:21:27;;;;;;;4.88;1.77;;;10.50;60.70;;;;;;20670857;28;20050;-63
2022/03/08 23:31:29;;;;;;;3.95;2.13;;;10.30;61.30;;;;;;20670482;28;20066;-60
2022/03/08 23:41:31;;;;;;;6.82;2.38;;;10.10;61.70;;;;;;20670691;28;20109;-61
2022/03/08 23:51:33;;;;;;;6.97;2.50;;;9.90;62.90;;;;;;20669701;28;20104;-60
